Time;durP1;ratioP1;P1;durP2;ratioP2;P2;SDS_P1;SDS_P2;PMS_P1;PMS_P2;Temp;Humidity;BMP_temperature;BMP_pressure;BME280_temperature;BME280_humidity;BME280_pressure;Samples;Min_cycle;Max_cycle;Signal;HPM_P1;HPM_P2
2022/09/12 00:00:11;;;;;;;11.33;8.67;;;12.00;99.90;;;;;;5109326;28;20278;-51
2022/09/12 00:02:39;;;;;;;11.73;9.10;;;12.00;99.90;;;;;;5109177;28;20261;-51
2022/09/12 00:05:07;;;;;;;12.23;9.20;;;12.00;99.90;;;;;;5108897;28;20208;-51
2022/09/12 00:07:35;;;;;;;11.00;9.60;;;11.90;99.90;;;;;;5109162;28;20836;-50
2022/09/12 00:10:04;;;;;;;11.53;8.93;;;11.90;99.90;;;;;;5109088;28;20923;-51
2022/09/12 00:12:32;;;;;;;13.43;8.17;;;11.90;99.90;;;;;;5111055;28;20236;-51
2022/09/12 00:15:00;;;;;;;9.50;8.50;;;11.90;99.90;;;;;;5113340;28;20254;-51
2022/09/12 00:17:30;;;;;;;12.33;9.33;;;11.90;99.90;;;;;;5112710;28;20234;-53
2022/09/12 00:19:58;;;;;;;11.37;9.20;;;11.90;99.90;;;;;;5113098;28;20238;-51
2022/09/12 00:22:26;;;;;;;10.10;8.83;;;11.90;99.90;;;;;;5111022;28;20233;-51
2022/09/12 00:24:54;;;;;;;12.30;9.67;;;11.90;99.90;;;;;;5103853;28;20228;-51
2022/09/12 00:27:22;;;;;;;16.77;9.77;;;11.90;99.90;;;;;;5105168;28;20318;-51
2022/09/12 00:29:50;;;;;;;15.23;10.40;;;11.80;99.90;;;;;;5114654;28;20218;-51
2022/09/12 00:32:19;;;;;;;11.70;9.27;;;11.80;99.90;;;;;;5119765;28;20235;-50
2022/09/12 00:34:48;;;;;;;13.77;10.00;;;11.80;99.90;;;;;;5105632;28;20238;-51
2022/09/12 00:37:16;;;;;;;13.27;9.67;;;11.80;99.90;;;;;;5117453;28;20700;-51
2022/09/12 00:39:44;;;;;;;12.27;9.17;;;11.80;99.90;;;;;;5114439;28;20204;-51
2022/09/12 00:42:12;;;;;;;12.03;8.77;;;11.80;99.90;;;;;;5113358;28;20203;-51
2022/09/12 00:44:48;;;;;;;13.77;9.50;;;11.80;99.90;;;;;;5113071;28;20290;-51
2022/09/12 00:47:25;;;;;;;14.03;9.97;;;11.80;99.90;;;;;;5113254;28;20262;-51
2022/09/12 00:50:01;;;;;;;15.00;9.93;;;11.70;99.90;;;;;;5112714;28;20217;-53
2022/09/12 00:52:33;;;;;;;14.37;10.10;;;11.70;99.90;;;;;;5112479;28;20203;-51
2022/09/12 00:55:07;;;;;;;14.63;10.70;;;11.70;99.90;;;;;;5112840;28;20583;-51
2022/09/12 00:57:40;;;;;;;16.10;11.40;;;11.70;99.90;;;;;;5111812;28;20947;-50
2022/09/12 01:00:14;;;;;;;12.37;9.93;;;11.70;99.90;;;;;;5086735;28;20250;-53
2022/09/12 01:02:45;;;;;;;12.27;9.60;;;11.70;99.90;;;;;;5112776;28;20453;-53
2022/09/12 01:05:15;;;;;;;14.80;10.13;;;11.70;99.90;;;;;;5112165;28;20310;-53
2022/09/12 01:07:47;;;;;;;13.13;10.30;;;11.70;99.90;;;;;;5112120;28;20223;-53
2022/09/12 01:10:15;;;;;;;13.40;10.90;;;11.60;99.90;;;;;;5112407;28;20226;-51
2022/09/12 01:12:44;;;;;;;14.10;10.20;;;11.60;99.90;;;;;;5107548;28;20273;-51
2022/09/12 01:15:13;;;;;;;13.70;10.33;;;11.60;99.90;;;;;;5112059;28;20239;-54
2022/09/12 01:18:07;;;;;;;11.50;9.57;;;11.60;99.90;;;;;;5111534;28;20266;-51
2022/09/12 01:20:51;;;;;;;17.47;11.00;;;11.60;99.90;;;;;;5112026;28;20238;-51
2022/09/12 01:23:54;;;;;;;13.43;11.00;;;11.60;99.90;;;;;;5111307;28;20211;-51
2022/09/12 01:26:54;;;;;;;15.13;10.57;;;11.60;99.90;;;;;;5086099;28;20207;-51
2022/09/12 01:29:43;;;;;;;14.17;10.30;;;11.60;99.90;;;;;;5094886;28;20294;-51
2022/09/12 01:32:20;;;;;;;13.90;10.83;;;11.50;99.90;;;;;;5111402;28;20239;-50
2022/09/12 01:34:56;;;;;;;15.83;11.10;;;11.50;99.90;;;;;;5103592;28;20230;-51
2022/09/12 01:37:33;;;;;;;15.23;10.93;;;11.50;99.90;;;;;;5111452;28;20726;-51
2022/09/12 01:40:12;;;;;;;13.53;10.73;;;11.60;99.90;;;;;;5111820;28;20257;-51
2022/09/12 01:42:47;;;;;;;13.53;10.63;;;11.50;99.90;;;;;;5111117;28;20237;-51
2022/09/12 01:45:21;;;;;;;15.87;11.80;;;11.50;99.90;;;;;;5111745;28;20231;-51
2022/09/12 01:47:59;;;;;;;15.70;10.33;;;11.50;99.90;;;;;;5111185;28;20222;-51
2022/09/12 01:50:30;;;;;;;16.33;10.60;;;11.50;99.90;;;;;;5110842;28;20269;-51
2022/09/12 01:53:04;;;;;;;15.47;10.87;;;11.50;99.90;;;;;;5111453;28;20212;-51
2022/09/12 01:55:36;;;;;;;14.63;10.57;;;11.60;99.90;;;;;;5111602;28;20206;-51
2022/09/12 01:58:07;;;;;;;14.67;10.77;;;11.60;99.90;;;;;;5110611;28;20278;-51
2022/09/12 02:00:41;;;;;;;17.00;11.53;;;11.70;99.90;;;;;;5111163;28;20243;-51
2022/09/12 02:03:14;;;;;;;18.00;11.77;;;11.70;99.90;;;;;;5110686;28;20231;-51
2022/09/12 02:05:48;;;;;;;16.13;10.70;;;11.70;99.90;;;;;;5111117;28;20247;-51
2022/09/12 02:08:20;;;;;;;12.37;9.87;;;11.70;99.90;;;;;;5110874;28;20601;-51
2022/09/12 02:10:53;;;;;;;14.50;10.97;;;11.70;99.90;;;;;;5110896;28;20242;-51
2022/09/12 02:13:26;;;;;;;14.47;10.40;;;11.70;99.90;;;;;;5110684;28;20238;-51
2022/09/12 02:16:02;;;;;;;14.33;10.03;;;11.70;99.90;;;;;;5110723;28;20306;-51
2022/09/12 02:18:33;;;;;;;14.67;10.90;;;11.70;99.90;;;;;;5082489;28;20743;-50
2022/09/12 02:21:05;;;;;;;14.43;10.87;;;11.70;99.90;;;;;;5110455;28;20204;-51
2022/09/12 02:23:38;;;;;;;18.67;11.83;;;11.60;99.90;;;;;;5110753;28;20286;-51
2022/09/12 02:26:12;;;;;;;16.47;11.73;;;11.60;99.90;;;;;;5109380;28;20684;-51
2022/09/12 02:28:43;;;;;;;14.83;10.50;;;11.60;99.90;;;;;;5107633;28;20218;-51
2022/09/12 02:31:20;;;;;;;14.30;11.20;;;11.60;99.90;;;;;;5110527;28;20212;-51
2022/09/12 02:34:00;;;;;;;15.13;10.40;;;11.60;99.90;;;;;;5102001;28;20261;-51
2022/09/12 02:36:38;;;;;;;15.03;11.43;;;11.50;99.90;;;;;;5109751;28;20804;-51
2022/09/12 02:39:06;;;;;;;12.90;10.30;;;11.50;99.90;;;;;;5110634;28;20195;-51
2022/09/12 02:41:34;;;;;;;13.23;10.90;;;11.40;99.90;;;;;;5109836;28;20289;-51
2022/09/12 02:44:03;;;;;;;17.73;11.60;;;11.50;99.90;;;;;;5110404;28;20243;-51
2022/09/12 02:46:37;;;;;;;16.83;12.00;;;11.40;99.90;;;;;;5110059;28;20235;-51
2022/09/12 02:49:06;;;;;;;18.37;12.37;;;11.40;99.90;;;;;;5109915;28;20211;-51
2022/09/12 02:51:37;;;;;;;17.50;11.47;;;11.40;99.90;;;;;;5094619;28;20199;-51
2022/09/12 02:54:06;;;;;;;17.33;12.20;;;11.40;99.90;;;;;;5093462;28;20761;-51
2022/09/12 02:56:35;;;;;;;14.33;11.50;;;11.40;99.90;;;;;;5089342;28;20204;-51
2022/09/12 02:59:07;;;;;;;15.87;11.17;;;11.30;99.90;;;;;;5085376;28;20272;-51
2022/09/12 03:01:49;;;;;;;17.17;11.43;;;11.30;99.90;;;;;;5080517;28;20292;-51
2022/09/12 03:04:42;;;;;;;16.53;11.83;;;11.30;99.90;;;;;;5089495;28;20291;-51
2022/09/12 03:07:16;;;;;;;14.27;10.60;;;11.30;99.90;;;;;;5088606;28;20216;-51
2022/09/12 03:09:48;;;;;;;17.43;12.10;;;11.20;99.90;;;;;;5077402;28;20234;-51
2022/09/12 03:12:27;;;;;;;15.63;11.47;;;11.20;99.90;;;;;;5089527;28;20243;-51
2022/09/12 03:15:12;;;;;;;17.30;11.57;;;11.30;99.90;;;;;;5105038;28;20233;-51
2022/09/12 03:17:51;;;;;;;14.37;10.50;;;11.20;99.90;;;;;;5109282;28;20231;-51
2022/09/12 03:20:34;;;;;;;16.30;11.67;;;11.20;99.90;;;;;;5109970;28;20199;-51
2022/09/12 03:23:05;;;;;;;13.17;10.40;;;11.20;99.90;;;;;;5109834;28;20306;-51
2022/09/12 03:25:36;;;;;;;12.87;10.03;;;11.20;99.90;;;;;;5086424;28;20205;-51
2022/09/12 03:28:08;;;;;;;14.80;10.40;;;11.20;99.90;;;;;;5087639;28;20219;-51
2022/09/12 03:30:39;;;;;;;15.23;11.57;;;11.20;99.90;;;;;;5090269;28;20200;-51
2022/09/12 03:33:11;;;;;;;15.93;10.87;;;11.20;99.90;;;;;;5089554;28;20208;-51
2022/09/12 03:35:41;;;;;;;13.73;10.70;;;11.10;99.90;;;;;;5089520;28;20288;-51
2022/09/12 03:38:09;;;;;;;13.53;10.33;;;11.10;99.90;;;;;;5088949;28;20220;-51
2022/09/12 03:40:38;;;;;;;13.37;10.30;;;11.10;99.90;;;;;;5089440;28;20236;-51
2022/09/12 03:43:07;;;;;;;12.57;10.13;;;11.10;99.90;;;;;;5088658;28;20247;-51
2022/09/12 03:45:36;;;;;;;18.27;10.00;;;11.10;99.90;;;;;;5089967;28;20236;-50
2022/09/12 03:48:05;;;;;;;14.57;10.67;;;11.10;99.90;;;;;;5093188;28;20230;-51
2022/09/12 03:50:33;;;;;;;12.40;9.67;;;11.10;99.90;;;;;;5093446;28;20287;-51
2022/09/12 03:53:04;;;;;;;16.27;10.90;;;11.10;99.90;;;;;;5092918;28;20299;-51
2022/09/12 03:55:32;;;;;;;14.03;10.27;;;11.00;99.90;;;;;;5093652;28;20192;-50
2022/09/12 03:58:00;;;;;;;11.60;9.10;;;11.00;99.90;;;;;;5093004;28;20259;-51
2022/09/12 04:00:28;;;;;;;11.27;9.30;;;11.00;99.90;;;;;;5078724;28;20197;-51
2022/09/12 04:02:57;;;;;;;11.73;9.43;;;11.00;99.90;;;;;;5093195;28;20311;-50
2022/09/12 04:05:25;;;;;;;15.23;10.60;;;11.00;99.90;;;;;;5092530;28;20299;-50
2022/09/12 04:07:53;;;;;;;17.83;11.87;;;11.00;99.90;;;;;;5093274;28;20220;-51
2022/09/12 04:10:23;;;;;;;13.40;10.00;;;11.00;99.90;;;;;;5092940;28;20627;-51
2022/09/12 04:12:51;;;;;;;14.47;9.97;;;11.00;99.90;;;;;;5092747;28;20239;-51
2022/09/12 04:15:19;;;;;;;15.03;11.03;;;11.00;99.90;;;;;;5092737;28;20302;-51
2022/09/12 04:17:47;;;;;;;13.33;10.33;;;10.90;99.90;;;;;;5092715;28;20323;-51
2022/09/12 04:20:17;;;;;;;13.70;9.73;;;10.90;99.90;;;;;;5092428;28;20216;-51
2022/09/12 04:22:45;;;;;;;11.27;8.97;;;10.90;99.90;;;;;;5092371;28;20646;-51
2022/09/12 04:25:13;;;;;;;13.47;9.53;;;10.90;99.90;;;;;;5092273;28;20239;-51
2022/09/12 04:27:42;;;;;;;11.17;8.97;;;10.90;99.90;;;;;;5091790;28;20224;-51
2022/09/12 04:30:11;;;;;;;14.07;10.20;;;10.90;99.90;;;;;;5092329;28;20331;-51
2022/09/12 04:32:40;;;;;;;13.80;10.03;;;10.90;99.90;;;;;;5092479;28;20934;-51
2022/09/12 04:35:10;;;;;;;13.20;9.20;;;10.80;99.90;;;;;;5092361;28;20204;-51
2022/09/12 04:37:38;;;;;;;10.93;8.80;;;10.80;99.90;;;;;;5092327;28;20234;-51
2022/09/12 04:40:07;;;;;;;14.67;9.00;;;10.80;99.90;;;;;;5092430;28;20323;-51
2022/09/12 04:42:35;;;;;;;13.67;10.17;;;10.80;99.90;;;;;;5092216;28;20908;-50
2022/09/12 04:45:06;;;;;;;11.43;9.23;;;10.80;99.90;;;;;;5092113;28;20204;-51
2022/09/12 04:47:34;;;;;;;11.17;8.30;;;10.80;99.90;;;;;;5094061;28;20315;-51
2022/09/12 04:50:03;;;;;;;12.23;8.37;;;10.80;99.90;;;;;;5094838;28;20204;-51
2022/09/12 04:52:31;;;;;;;11.97;9.50;;;10.80;99.90;;;;;;5097783;28;20235;-51
2022/09/12 04:54:59;;;;;;;11.50;8.67;;;10.80;99.90;;;;;;5093283;28;20204;-50
2022/09/12 04:57:27;;;;;;;12.57;9.20;;;10.80;99.90;;;;;;5091038;28;20224;-51
2022/09/12 04:59:55;;;;;;;11.70;8.87;;;10.80;99.90;;;;;;5078719;28;20634;-51
2022/09/12 05:02:24;;;;;;;12.23;9.63;;;10.80;99.90;;;;;;5076785;28;20243;-50
2022/09/12 05:04:53;;;;;;;12.40;9.43;;;10.80;99.90;;;;;;5092079;28;20623;-51
2022/09/12 05:07:21;;;;;;;15.70;9.57;;;10.80;99.90;;;;;;5091671;28;20226;-51
2022/09/12 05:09:49;;;;;;;10.43;8.30;;;10.80;99.90;;;;;;5091296;28;20677;-50
2022/09/12 05:12:17;;;;;;;14.00;9.73;;;10.80;99.90;;;;;;5091579;28;20209;-51
2022/09/12 05:14:45;;;;;;;16.27;9.70;;;10.80;99.90;;;;;;5091655;28;20219;-51
2022/09/12 05:17:13;;;;;;;12.57;9.20;;;10.80;99.90;;;;;;5091869;28;20224;-51
2022/09/12 05:19:42;;;;;;;12.73;8.67;;;10.80;99.90;;;;;;5091231;28;20235;-51
2022/09/12 05:22:11;;;;;;;12.43;8.73;;;10.80;99.90;;;;;;5091804;28;20299;-51
2022/09/12 05:24:42;;;;;;;15.20;9.90;;;10.90;99.90;;;;;;5091062;28;20201;-51
2022/09/12 05:27:16;;;;;;;15.53;10.07;;;10.90;99.90;;;;;;5091064;28;20789;-50
2022/09/12 05:29:44;;;;;;;12.17;9.40;;;11.00;99.90;;;;;;5091319;28;20235;-51
2022/09/12 05:32:12;;;;;;;15.90;10.43;;;11.00;99.90;;;;;;5091470;28;20218;-51
2022/09/12 05:34:42;;;;;;;11.97;9.50;;;11.10;99.90;;;;;;5088984;28;20304;-51
2022/09/12 05:37:10;;;;;;;12.10;9.30;;;11.10;99.90;;;;;;5089648;28;20760;-51
2022/09/12 05:39:38;;;;;;;10.90;8.77;;;11.10;99.90;;;;;;5099807;28;20247;-51
2022/09/12 05:42:06;;;;;;;12.23;9.37;;;11.20;99.90;;;;;;5110340;28;20211;-51
2022/09/12 05:44:34;;;;;;;13.27;9.90;;;11.20;99.90;;;;;;5111441;28;20200;-51
2022/09/12 05:47:02;;;;;;;12.80;8.63;;;11.30;99.90;;;;;;5111299;28;20313;-51
2022/09/12 05:49:30;;;;;;;12.77;9.80;;;11.30;99.90;;;;;;5111165;28;20303;-50
2022/09/12 05:52:00;;;;;;;11.73;8.73;;;11.40;99.90;;;;;;5111319;28;20207;-50
2022/09/12 05:54:28;;;;;;;12.77;9.53;;;11.40;99.90;;;;;;5110284;28;20231;-51
2022/09/12 05:56:58;;;;;;;13.43;9.60;;;11.50;99.90;;;;;;5107131;28;20314;-51
2022/09/12 05:59:27;;;;;;;12.23;9.37;;;11.50;99.90;;;;;;5090980;28;20267;-51
2022/09/12 06:01:55;;;;;;;11.10;8.87;;;11.50;99.90;;;;;;5086965;28;20291;-51
2022/09/12 06:04:24;;;;;;;12.93;9.33;;;11.60;99.90;;;;;;5090640;28;20738;-51
2022/09/12 06:06:52;;;;;;;10.67;8.60;;;11.70;99.90;;;;;;5090386;28;20307;-50
2022/09/12 06:09:24;;;;;;;12.03;9.37;;;11.80;99.90;;;;;;5089308;28;20236;-51
2022/09/12 06:11:52;;;;;;;12.83;9.67;;;11.80;99.90;;;;;;5090502;28;20234;-51
2022/09/12 06:14:21;;;;;;;15.00;9.90;;;11.90;99.90;;;;;;5090348;28;20208;-51
2022/09/12 06:16:49;;;;;;;12.33;9.13;;;12.00;99.90;;;;;;5090686;28;20282;-51
2022/09/12 06:19:18;;;;;;;10.93;8.87;;;12.00;99.90;;;;;;5090402;28;20220;-51
2022/09/12 06:21:48;;;;;;;12.07;9.17;;;12.20;99.90;;;;;;5089972;28;20299;-51
2022/09/12 06:24:17;;;;;;;12.00;9.03;;;12.20;99.90;;;;;;5090344;28;20207;-51
2022/09/12 06:26:47;;;;;;;10.97;9.10;;;12.40;99.90;;;;;;5089694;28;20725;-51
2022/09/12 06:29:16;;;;;;;12.40;9.73;;;12.80;99.90;;;;;;5090472;28;20196;-50
2022/09/12 06:31:45;;;;;;;11.37;9.50;;;13.30;99.90;;;;;;5089872;28;20673;-51
2022/09/12 06:34:16;;;;;;;13.60;10.90;;;13.80;99.90;;;;;;5090097;28;20685;-51
2022/09/12 06:36:45;;;;;;;13.67;11.80;;;14.10;99.90;;;;;;5079419;28;20339;-51
2022/09/12 06:39:16;;;;;;;13.40;11.17;;;14.50;99.90;;;;;;5076580;28;20686;-51
2022/09/12 06:41:47;;;;;;;11.97;9.83;;;14.70;99.90;;;;;;5101346;28;20205;-51
2022/09/12 06:44:17;;;;;;;11.43;8.27;;;14.90;99.90;;;;;;5109775;28;20303;-51
2022/09/12 06:46:46;;;;;;;10.10;8.02;;;15.20;99.90;;;;;;5110198;28;20314;-51
2022/09/12 06:49:14;;;;;;;8.40;7.47;;;15.40;99.90;;;;;;5109904;28;20200;-50
2022/09/12 06:51:42;;;;;;;8.23;7.05;;;15.60;99.90;;;;;;5109312;28;20287;-51
2022/09/12 06:54:14;;;;;;;9.45;8.10;;;15.70;99.90;;;;;;5109829;28;20231;-51
2022/09/12 06:56:42;;;;;;;10.05;8.88;;;15.80;99.90;;;;;;5109254;28;20263;-50
2022/09/12 06:59:12;;;;;;;9.63;7.80;;;15.90;99.90;;;;;;5094614;28;20209;-51
2022/09/12 07:01:41;;;;;;;8.68;7.68;;;16.10;99.90;;;;;;5083610;28;20220;-51
2022/09/12 07:04:10;;;;;;;8.93;7.70;;;16.30;99.90;;;;;;5075982;28;20822;-51
2022/09/12 07:06:40;;;;;;;9.65;7.90;;;16.40;99.90;;;;;;5089012;28;20553;-51
2022/09/12 07:09:10;;;;;;;8.68;7.80;;;16.60;99.90;;;;;;5089174;28;20235;-51
2022/09/12 07:11:40;;;;;;;11.32;8.02;;;16.90;99.90;;;;;;5088738;28;20513;-51
2022/09/12 07:14:11;;;;;;;7.97;7.18;;;17.00;99.90;;;;;;5089133;28;20590;-51
2022/09/12 07:16:41;;;;;;;9.63;8.07;;;17.00;99.90;;;;;;5089350;28;20208;-51
2022/09/12 07:19:10;;;;;;;11.10;7.97;;;17.20;99.90;;;;;;5089266;28;20216;-51
2022/09/12 07:21:39;;;;;;;11.07;7.22;;;17.40;99.90;;;;;;5088932;28;20596;-51
2022/09/12 07:24:08;;;;;;;10.65;8.13;;;17.50;99.90;;;;;;5089180;28;20211;-51
2022/09/12 07:26:38;;;;;;;10.55;8.23;;;17.50;99.90;;;;;;5089323;28;20232;-51
2022/09/12 07:29:08;;;;;;;9.10;8.15;;;17.60;99.90;;;;;;5089030;28;20596;-50
2022/09/12 07:31:57;;;;;;;10.02;9.02;;;17.80;99.90;;;;;;5089507;28;20235;-50
2022/09/12 07:34:25;;;;;;;10.43;8.73;;;17.90;99.90;;;;;;5089612;28;20774;-51
2022/09/12 07:36:53;;;;;;;10.75;9.43;;;18.10;99.90;;;;;;5089752;28;20286;-51
2022/09/12 07:39:21;;;;;;;9.65;8.45;;;18.20;99.90;;;;;;5089771;28;20263;-50
2022/09/12 07:41:50;;;;;;;10.45;9.13;;;18.30;99.90;;;;;;5089711;28;20684;-51
2022/09/12 07:44:18;;;;;;;9.82;8.85;;;18.40;99.90;;;;;;5088435;28;20644;-51
2022/09/12 07:46:46;;;;;;;14.90;10.20;;;18.50;99.90;;;;;;5080156;28;20255;-51
2022/09/12 07:49:15;;;;;;;10.05;9.05;;;18.50;99.90;;;;;;5089586;28;20211;-51
2022/09/12 07:51:44;;;;;;;10.98;9.48;;;18.30;99.90;;;;;;5075025;28;20992;-50
2022/09/12 07:54:12;;;;;;;10.40;9.10;;;18.30;99.90;;;;;;5089337;28;20211;-51
2022/09/12 07:56:40;;;;;;;11.52;10.18;;;18.40;99.90;;;;;;5088072;28;20287;-50
2022/09/12 07:59:09;;;;;;;11.23;9.02;;;18.30;99.90;;;;;;5081623;28;20236;-51
2022/09/12 08:01:38;;;;;;;11.23;9.82;;;18.30;99.90;;;;;;5082730;28;20236;-51
2022/09/12 08:04:07;;;;;;;10.75;9.48;;;18.20;99.90;;;;;;5089031;28;20208;-51
2022/09/12 08:06:36;;;;;;;12.02;10.05;;;18.20;99.90;;;;;;5088881;28;20219;-51
2022/09/12 08:09:06;;;;;;;11.40;10.07;;;18.20;99.90;;;;;;5088739;28;20951;-51
2022/09/12 08:11:35;;;;;;;11.43;9.80;;;18.20;99.90;;;;;;5089230;28;20200;-50
2022/09/12 08:14:04;;;;;;;12.82;10.27;;;18.10;99.90;;;;;;5088599;28;20772;-51
2022/09/12 08:16:33;;;;;;;12.02;10.38;;;18.20;99.90;;;;;;5091795;28;20207;-51
2022/09/12 08:19:03;;;;;;;12.00;10.65;;;18.30;99.90;;;;;;5098870;28;20712;-51
2022/09/12 08:21:32;;;;;;;11.80;10.60;;;18.30;99.90;;;;;;5104831;28;20223;-51
2022/09/12 08:24:04;;;;;;;10.88;9.75;;;18.30;99.90;;;;;;5109248;28;20905;-51
2022/09/12 08:26:34;;;;;;;11.68;10.48;;;18.40;99.90;;;;;;5107260;28;20196;-51
2022/09/12 08:29:03;;;;;;;14.00;10.35;;;18.50;99.90;;;;;;5108206;28;20200;-50
2022/09/12 08:31:35;;;;;;;11.45;9.18;;;18.50;99.90;;;;;;5108889;28;20231;-51
2022/09/12 08:34:04;;;;;;;11.50;8.88;;;18.70;99.90;;;;;;5110644;28;20887;-51
2022/09/12 08:36:32;;;;;;;10.57;8.98;;;18.80;99.90;;;;;;5112482;28;20672;-50
2022/09/12 08:39:04;;;;;;;11.15;9.13;;;18.90;99.90;;;;;;5112786;28;20246;-51
2022/09/12 08:41:35;;;;;;;10.90;9.20;;;19.00;99.90;;;;;;5112360;28;20218;-51
2022/09/12 08:44:33;;;;;;;11.40;9.20;;;19.10;99.90;;;;;;5112732;28;20235;-50
2022/09/12 08:47:19;;;;;;;10.25;8.30;;;19.20;99.90;;;;;;5112465;28;20267;-50
2022/09/12 08:49:57;;;;;;;9.20;8.10;;;19.30;99.90;;;;;;5100686;28;20211;-51
2022/09/12 08:52:29;;;;;;;8.52;7.57;;;19.40;99.90;;;;;;5086470;28;20199;-51
2022/09/12 08:55:00;;;;;;;10.15;8.20;;;19.50;99.90;;;;;;5112764;28;20204;-51
2022/09/12 08:57:28;;;;;;;8.80;7.22;;;19.70;99.90;;;;;;5112638;28;20234;-51
2022/09/12 08:59:57;;;;;;;8.95;7.20;;;19.80;99.90;;;;;;5112502;28;20325;-50
2022/09/12 09:02:52;;;;;;;8.15;7.25;;;20.00;99.90;;;;;;5113123;28;20318;-50
2022/09/12 09:05:29;;;;;;;8.75;6.93;;;20.00;99.90;;;;;;5113027;28;20268;-52
2022/09/12 09:08:17;;;;;;;8.95;7.60;;;20.00;99.90;;;;;;5113653;28;20627;-50
2022/09/12 09:10:53;;;;;;;8.68;7.70;;;20.00;99.90;;;;;;5113060;28;20290;-51
2022/09/12 09:16:30;;;;;;;7.40;6.10;;;20.00;99.90;;;;;;5111438;28;20203;-51
2022/09/12 09:19:02;;;;;;;7.55;6.78;;;20.00;99.90;;;;;;5111835;28;20322;-51
2022/09/12 09:21:37;;;;;;;7.47;6.68;;;20.10;99.90;;;;;;5111936;28;20216;-50
2022/09/12 09:24:10;;;;;;;7.30;6.60;;;20.10;99.90;;;;;;5111733;28;20298;-51
2022/09/12 09:26:46;;;;;;;7.60;6.80;;;19.90;99.90;;;;;;5111648;28;20282;-51
2022/09/12 09:29:18;;;;;;;8.38;6.82;;;20.00;99.90;;;;;;5099246;28;20645;-51
2022/09/12 09:31:49;;;;;;;8.40;6.60;;;20.00;99.90;;;;;;5111592;28;20290;-51
2022/09/12 09:34:21;;;;;;;8.02;6.25;;;20.10;99.90;;;;;;5098912;28;20236;-51
2022/09/12 09:36:51;;;;;;;6.60;6.00;;;20.10;99.90;;;;;;5111980;28;20255;-51
2022/09/12 09:39:41;;;;;;;7.93;5.90;;;20.20;99.90;;;;;;5111405;28;20631;-51
2022/09/12 09:42:20;;;;;;;7.05;6.35;;;20.30;99.90;;;;;;5111315;28;20219;-51
2022/09/12 09:45:14;;;;;;;7.10;5.47;;;20.40;99.90;;;;;;5111501;28;20207;-50
2022/09/12 09:47:46;;;;;;;9.50;6.07;;;20.40;99.90;;;;;;5103861;28;20234;-51
2022/09/12 09:50:16;;;;;;;6.97;5.55;;;20.50;99.90;;;;;;5090911;28;20202;-52
2022/09/12 09:52:45;;;;;;;6.25;5.65;;;20.50;99.90;;;;;;5086989;28;20288;-51
2022/09/12 09:55:17;;;;;;;6.38;5.65;;;20.60;99.90;;;;;;5099787;28;20227;-50
2022/09/12 09:57:47;;;;;;;7.50;6.53;;;20.60;99.90;;;;;;5090991;28;20311;-51
2022/09/12 10:00:24;;;;;;;7.75;6.75;;;20.60;99.90;;;;;;5104360;28;20207;-51
2022/09/12 10:03:21;;;;;;;8.00;6.38;;;20.60;99.90;;;;;;5111323;28;20312;-51
2022/09/12 10:05:50;;;;;;;7.88;6.55;;;20.60;99.90;;;;;;5111420;28;20345;-51
2022/09/12 10:08:25;;;;;;;7.43;6.30;;;20.70;99.90;;;;;;5111123;28;20660;-51
2022/09/12 10:10:54;;;;;;;7.00;6.30;;;20.80;99.90;;;;;;5110369;28;20203;-51
2022/09/12 10:13:40;;;;;;;7.00;6.30;;;20.80;99.90;;;;;;5106666;28;20294;-51
2022/09/12 10:16:20;;;;;;;6.07;5.50;;;20.80;99.90;;;;;;5111306;28;20559;-51
2022/09/12 10:18:51;;;;;;;7.30;5.93;;;20.80;99.90;;;;;;5110625;28;20203;-51
2022/09/12 10:21:29;;;;;;;7.63;6.38;;;20.90;99.90;;;;;;5110761;28;20306;-51
2022/09/12 10:24:10;;;;;;;10.40;6.57;;;20.80;99.90;;;;;;5091468;28;20235;-51
2022/09/12 10:26:40;;;;;;;7.97;6.57;;;20.90;99.90;;;;;;5091681;28;20200;-51
2022/09/12 10:29:17;;;;;;;9.93;6.57;;;21.00;99.90;;;;;;5097020;28;20240;-51
2022/09/12 10:31:50;;;;;;;8.73;6.18;;;21.00;99.90;;;;;;5110176;28;20728;-51
2022/09/12 10:34:29;;;;;;;7.55;6.72;;;21.10;99.90;;;;;;5095509;28;20240;-51
2022/09/12 10:37:05;;;;;;;8.70;7.13;;;21.20;99.90;;;;;;5110615;28;20227;-51
2022/09/12 10:39:35;;;;;;;10.63;8.60;;;21.20;99.90;;;;;;5109783;28;20743;-51
2022/09/12 10:42:04;;;;;;;11.20;8.68;;;21.30;99.90;;;;;;5109974;28;20851;-51
2022/09/12 10:44:34;;;;;;;8.95;7.53;;;21.20;99.90;;;;;;5109488;28;20246;-51
2022/09/12 10:47:21;;;;;;;9.82;8.80;;;21.20;99.90;;;;;;5110406;28;20233;-51
2022/09/12 10:49:50;;;;;;;8.75;7.88;;;21.20;99.90;;;;;;5100059;28;20671;-50
2022/09/12 10:52:22;;;;;;;8.30;7.05;;;21.20;99.90;;;;;;5110043;28;20227;-51
2022/09/12 10:54:50;;;;;;;8.40;7.05;;;21.30;99.90;;;;;;5110045;28;20222;-51
2022/09/12 10:57:52;;;;;;;10.90;8.90;;;21.40;99.90;;;;;;5108893;28;20590;-51
2022/09/12 11:00:26;;;;;;;12.05;9.07;;;21.50;99.90;;;;;;5109749;28;20199;-51
2022/09/12 11:03:06;;;;;;;13.20;9.02;;;21.50;99.90;;;;;;5109988;28;20211;-51
2022/09/12 11:05:53;;;;;;;10.63;8.90;;;21.40;99.90;;;;;;5098102;28;20253;-51
2022/09/12 11:08:44;;;;;;;11.32;8.60;;;21.50;99.90;;;;;;5109665;28;20262;-51
2022/09/12 11:11:30;;;;;;;13.38;10.27;;;21.60;99.90;;;;;;5105398;28;20207;-51
2022/09/12 11:14:11;;;;;;;10.93;9.02;;;21.60;99.90;;;;;;5107445;28;20234;-51
2022/09/12 11:16:46;;;;;;;10.85;9.10;;;21.70;99.90;;;;;;5108114;28;20234;-51
2022/09/12 11:19:56;;;;;;;11.25;9.65;;;21.70;99.90;;;;;;5108503;28;20251;-51
2022/09/12 11:22:36;;;;;;;13.25;9.65;;;21.70;99.90;;;;;;5106710;28;20725;-52
2022/09/12 11:25:18;;;;;;;13.70;10.45;;;21.80;99.90;;;;;;5109803;28;20294;-51
2022/09/12 11:28:04;;;;;;;17.77;11.73;;;22.00;99.90;;;;;;5107831;28;20219;-51
2022/09/12 11:30:39;;;;;;;14.75;11.82;;;22.00;99.90;;;;;;5101545;28;20268;-51
2022/09/12 11:33:31;;;;;;;13.00;10.82;;;22.00;99.90;;;;;;5096777;28;20207;-51
2022/09/12 11:36:04;;;;;;;17.92;12.50;;;22.00;99.90;;;;;;5085393;28;20287;-51
2022/09/12 11:38:48;;;;;;;13.63;10.48;;;22.20;99.90;;;;;;5089111;28;20666;-51
2022/09/12 11:41:23;;;;;;;13.38;10.45;;;22.20;99.90;;;;;;5088440;28;20205;-51
2022/09/12 11:43:57;;;;;;;13.50;10.00;;;22.30;99.90;;;;;;5081572;28;20570;-51
2022/09/12 11:46:35;;;;;;;12.25;10.23;;;22.30;99.90;;;;;;5086773;28;20283;-51
2022/09/12 11:49:16;;;;;;;10.43;9.32;;;22.40;99.90;;;;;;5087101;28;20228;-51
2022/09/12 11:51:49;;;;;;;14.90;10.45;;;22.40;99.90;;;;;;5088046;28;20825;-52
2022/09/12 11:54:22;;;;;;;13.88;10.70;;;22.50;99.90;;;;;;5089096;28;20230;-51
2022/09/12 11:56:58;;;;;;;12.55;9.95;;;22.70;99.90;;;;;;5087347;28;20576;-51
2022/09/12 11:59:35;;;;;;;12.32;9.43;;;22.80;99.90;;;;;;5081070;28;20239;-52
2022/09/12 12:02:10;;;;;;;12.07;9.82;;;23.00;99.90;;;;;;5089364;28;20232;-51
2022/09/12 12:04:44;;;;;;;12.10;8.95;;;22.90;99.90;;;;;;5081518;28;20207;-51
2022/09/12 12:07:14;;;;;;;10.32;8.75;;;22.80;99.90;;;;;;5089704;28;20224;-51
2022/09/12 12:09:50;;;;;;;10.90;8.43;;;22.70;99.90;;;;;;5085283;28;20721;-51
2022/09/12 12:12:24;;;;;;;10.93;9.30;;;22.60;99.90;;;;;;5092305;28;20198;-52
2022/09/12 12:14:54;;;;;;;9.45;8.48;;;22.50;99.90;;;;;;5084654;28;20298;-51
2022/09/12 12:17:24;;;;;;;10.02;8.98;;;22.60;99.90;;;;;;5092251;28;20288;-52
2022/09/12 12:20:03;;;;;;;8.77;6.93;;;22.70;99.90;;;;;;5084363;28;20205;-52
2022/09/12 12:22:36;;;;;;;9.00;7.38;;;22.70;99.90;;;;;;5082938;28;20242;-52
2022/09/12 12:25:24;;;;;;;8.05;6.50;;;22.90;99.90;;;;;;5076093;28;20242;-52
2022/09/12 12:28:00;;;;;;;6.75;5.43;;;23.00;99.90;;;;;;5088315;28;20327;-51
2022/09/12 12:31:01;;;;;;;6.32;5.35;;;22.80;99.90;;;;;;5086828;28;20231;-52
2022/09/12 12:34:00;;;;;;;5.75;4.53;;;22.70;99.90;;;;;;5087481;28;20685;-52
2022/09/12 12:36:41;;;;;;;5.65;4.55;;;22.60;99.90;;;;;;5089781;28;20996;-52
2022/09/12 12:39:46;;;;;;;7.68;5.88;;;22.80;99.90;;;;;;5090991;28;20568;-52
2022/09/12 12:43:03;;;;;;;8.32;6.05;;;22.90;99.90;;;;;;5089647;28;20236;-52
2022/09/12 12:46:00;;;;;;;8.18;6.88;;;22.80;99.90;;;;;;5090517;28;20291;-51
2022/09/12 12:48:34;;;;;;;7.97;6.53;;;22.70;99.90;;;;;;5039175;28;20220;-52
2022/09/12 12:51:37;;;;;;;10.35;7.00;;;22.70;99.90;;;;;;5084925;28;20303;-52
2022/09/12 12:54:30;;;;;;;9.27;6.60;;;22.70;99.90;;;;;;5000587;28;20287;-53
2022/09/12 12:57:04;;;;;;;9.88;6.82;;;22.50;99.90;;;;;;5085855;28;20307;-51
2022/09/12 12:59:33;;;;;;;7.28;6.28;;;22.50;99.90;;;;;;5090379;28;20193;-52
2022/09/12 13:02:04;;;;;;;8.60;6.30;;;22.50;99.90;;;;;;5089710;28;20636;-52
2022/09/12 13:04:33;;;;;;;7.32;5.35;;;22.50;99.90;;;;;;5090121;28;20196;-52
2022/09/12 13:07:05;;;;;;;6.22;4.93;;;22.40;99.90;;;;;;5090772;28;20230;-52
2022/09/12 13:09:44;;;;;;;5.93;5.30;;;22.30;99.90;;;;;;5093334;28;20269;-52